createdAt,value
2022-12-13T00:01:28.422Z,21.51
2022-12-13T00:03:57.556Z,21.51
2022-12-13T00:06:25.273Z,21.51
2022-12-13T00:08:53.420Z,21.52
2022-12-13T00:11:21.020Z,21.52
2022-12-13T00:13:48.975Z,21.53
2022-12-13T00:16:18.546Z,21.53
2022-12-13T00:18:47.955Z,21.52
2022-12-13T00:28:19.899Z,21.54
2022-12-13T00:30:47.521Z,21.51
2022-12-13T00:33:16.635Z,21.51
2022-12-13T00:35:45.882Z,21.51
2022-12-13T00:38:13.667Z,21.51
2022-12-13T00:40:41.299Z,21.50
2022-12-13T00:43:08.885Z,21.50
2022-12-13T00:45:38.202Z,21.51
2022-12-13T00:48:06.118Z,21.50
2022-12-13T00:50:35.083Z,21.49
2022-12-13T00:53:02.745Z,21.48
2022-12-13T00:55:30.382Z,21.47
2022-12-13T00:57:58.006Z,21.47
2022-12-13T01:00:25.978Z,21.46
2022-12-13T01:02:53.787Z,21.46
2022-12-13T01:12:17.315Z,21.45
2022-12-13T01:14:45.008Z,21.44
2022-12-13T01:17:12.655Z,21.43
2022-12-13T01:19:40.411Z,21.44
2022-12-13T01:22:08.197Z,21.45
2022-12-13T01:24:35.844Z,21.46
2022-12-13T01:27:03.470Z,21.46
2022-12-13T01:29:32.539Z,21.46
2022-12-13T01:32:00.239Z,21.47
2022-12-13T01:34:28.573Z,21.47
2022-12-13T01:36:58.414Z,21.45
2022-12-13T01:39:27.237Z,21.45
2022-12-13T01:42:00.004Z,21.46
2022-12-13T01:44:46.731Z,21.45
2022-12-13T01:47:15.767Z,21.44
2022-12-13T01:49:43.423Z,21.44
2022-12-13T01:52:11.042Z,21.43
2022-12-13T01:54:39.161Z,21.42
2022-12-13T01:57:14.526Z,21.42
2022-12-13T01:59:42.160Z,21.42
2022-12-13T02:02:09.963Z,21.41
2022-12-13T02:04:44.192Z,21.40
2022-12-13T02:07:31.042Z,21.40
2022-12-13T02:09:59.264Z,21.41
2022-12-13T02:12:29.574Z,21.39
2022-12-13T02:14:57.855Z,21.40
2022-12-13T02:17:29.421Z,21.40
2022-12-13T02:20:04.960Z,21.39
2022-12-13T02:22:41.579Z,21.38
2022-12-13T02:25:12.219Z,21.39
2022-12-13T02:27:43.219Z,21.39
2022-12-13T02:30:20.845Z,21.39
2022-12-13T02:32:52.278Z,21.39
2022-12-13T02:35:33.611Z,21.40
2022-12-13T02:38:02.535Z,21.40
2022-12-13T02:40:31.073Z,21.40
2022-12-13T02:43:00.103Z,21.41
2022-12-13T02:45:29.591Z,21.39
2022-12-13T02:47:57.446Z,21.39
2022-12-13T02:50:55.975Z,21.38
2022-12-13T02:53:23.749Z,21.38
2022-12-13T02:55:51.422Z,21.37
2022-12-13T02:58:20.392Z,21.38
2022-12-13T03:00:52.418Z,21.37
2022-12-13T03:03:23.206Z,21.36
2022-12-13T03:13:03.868Z,21.35
2022-12-13T03:15:34.453Z,21.35
2022-12-13T03:18:04.310Z,21.34
2022-12-13T03:23:53.613Z,21.32
2022-12-13T03:26:21.581Z,21.32
2022-12-13T03:28:49.248Z,21.33
2022-12-13T03:31:16.896Z,21.33
2022-12-13T03:33:46.159Z,21.33
2022-12-13T03:39:45.726Z,21.34
2022-12-13T03:42:15.169Z,21.35
2022-12-13T03:44:42.810Z,21.36
2022-12-13T03:47:10.464Z,21.37
2022-12-13T03:49:39.484Z,21.37
2022-12-13T03:52:07.080Z,21.37
2022-12-13T03:54:34.716Z,21.36
2022-12-13T03:57:02.389Z,21.35
2022-12-13T03:59:30.423Z,21.34
2022-12-13T04:01:58.155Z,21.34
2022-12-13T04:04:25.779Z,21.33
2022-12-13T04:10:26.906Z,21.33
2022-12-13T04:13:12.553Z,21.33
2022-12-13T04:15:40.215Z,21.32
2022-12-13T04:18:07.860Z,21.31
2022-12-13T04:20:35.510Z,21.32
2022-12-13T04:23:10.515Z,21.29
2022-12-13T04:25:39.815Z,21.30
2022-12-13T04:28:07.475Z,21.29
2022-12-13T04:30:35.135Z,21.29
2022-12-13T04:33:02.746Z,21.29
2022-12-13T04:35:30.334Z,21.28
2022-12-13T04:38:35.465Z,21.28
2022-12-13T04:41:08.076Z,21.27
2022-12-13T04:43:35.721Z,21.28
2022-12-13T04:46:03.414Z,21.28
2022-12-13T04:48:32.562Z,21.28
2022-12-13T04:51:50.155Z,21.30
2022-12-13T04:54:23.860Z,21.30
2022-12-13T04:56:53.415Z,21.30
2022-12-13T04:59:21.087Z,21.31
2022-12-13T05:01:48.899Z,21.30
2022-12-13T05:04:17.728Z,21.28
2022-12-13T05:06:58.941Z,21.28
2022-12-13T05:09:26.533Z,21.27
2022-12-13T05:12:01.764Z,21.28
2022-12-13T05:14:29.937Z,21.27
2022-12-13T05:16:57.622Z,21.27
2022-12-13T05:19:31.398Z,21.25
2022-12-13T05:22:01.502Z,21.26
2022-12-13T05:24:30.043Z,21.26
2022-12-13T05:26:59.025Z,21.25
2022-12-13T05:29:27.607Z,21.24
2022-12-13T05:31:55.353Z,21.25
2022-12-13T05:34:23.054Z,21.24
2022-12-13T05:40:13.046Z,21.24
2022-12-13T05:42:42.049Z,21.23
2022-12-13T05:45:10.007Z,21.24
2022-12-13T05:47:37.655Z,21.24
2022-12-13T05:50:05.852Z,21.25
2022-12-13T05:52:33.422Z,21.25
2022-12-13T05:55:01.385Z,21.25
2022-12-13T05:57:29.570Z,21.26
2022-12-13T05:59:59.334Z,21.26
2022-12-13T06:02:27.063Z,21.26
2022-12-13T06:04:54.938Z,21.26
2022-12-13T06:10:55.479Z,21.28
2022-12-13T06:13:42.413Z,21.29
2022-12-13T06:16:22.025Z,21.29
2022-12-13T06:18:55.919Z,21.29
2022-12-13T06:21:39.183Z,21.29
2022-12-13T06:24:13.377Z,21.29
2022-12-13T06:26:40.995Z,21.29
2022-12-13T06:29:08.579Z,21.29
2022-12-13T06:31:37.548Z,21.29
2022-12-13T06:34:14.867Z,21.30
2022-12-13T06:44:18.064Z,21.31
2022-12-13T06:46:47.158Z,21.32
2022-12-13T06:49:15.026Z,21.32
2022-12-13T06:51:42.692Z,21.33
2022-12-13T06:54:10.485Z,21.33
2022-12-13T06:56:38.266Z,21.32
2022-12-13T06:59:06.116Z,21.32
2022-12-13T07:01:37.366Z,21.33
2022-12-13T07:04:29.020Z,21.34
2022-12-13T07:07:15.841Z,21.35
2022-12-13T07:09:43.831Z,21.37
2022-12-13T07:12:11.739Z,21.37
2022-12-13T07:14:41.038Z,21.38
2022-12-13T07:17:10.811Z,21.38
2022-12-13T07:19:40.253Z,21.40
2022-12-13T07:22:17.104Z,21.40
2022-12-13T07:24:45.037Z,21.39
2022-12-13T07:27:12.697Z,21.40
2022-12-13T07:29:40.690Z,21.41
2022-12-13T07:32:08.666Z,21.42
2022-12-13T07:34:36.744Z,21.41
2022-12-13T07:37:05.791Z,21.43
2022-12-13T07:39:33.476Z,21.43
2022-12-13T07:42:01.178Z,21.44
2022-12-13T07:44:28.895Z,21.43
2022-12-13T07:46:56.638Z,21.43
2022-12-13T07:49:24.432Z,21.44
2022-12-13T07:52:12.942Z,21.44
2022-12-13T07:54:40.763Z,21.44
2022-12-13T07:57:08.497Z,21.45
2022-12-13T07:59:36.672Z,21.45
2022-12-13T08:02:04.439Z,21.45
2022-12-13T08:04:37.523Z,21.45
2022-12-13T08:07:07.361Z,21.45
2022-12-13T08:09:36.337Z,21.46
2022-12-13T08:12:04.025Z,21.46
2022-12-13T08:14:31.695Z,21.47
2022-12-13T08:16:59.365Z,21.48
2022-12-13T08:19:27.151Z,21.49
2022-12-13T08:22:01.780Z,21.49
2022-12-13T08:24:30.630Z,21.52
2022-12-13T08:27:02.000Z,21.55
2022-12-13T08:29:34.424Z,21.57
2022-12-13T08:32:03.444Z,21.58
2022-12-13T08:34:32.032Z,21.60
2022-12-13T08:37:05.592Z,21.62
2022-12-13T08:39:35.687Z,21.65
2022-12-13T08:42:14.678Z,21.66
2022-12-13T08:44:43.414Z,21.68
2022-12-13T08:47:11.140Z,21.69
2022-12-13T08:49:38.953Z,21.70
2022-12-13T08:52:06.686Z,21.72
2022-12-13T08:54:34.637Z,21.72
2022-12-13T08:57:02.320Z,21.75
2022-12-13T08:59:31.829Z,21.77
2022-12-13T09:02:04.759Z,21.78
2022-12-13T09:04:33.456Z,21.79
2022-12-13T09:07:01.573Z,21.79
2022-12-13T09:09:30.448Z,21.80
2022-12-13T09:11:59.508Z,21.81
2022-12-13T09:14:33.990Z,21.81
2022-12-13T09:17:03.780Z,21.81
2022-12-13T09:19:37.290Z,21.83
2022-12-13T09:22:05.453Z,21.83
2022-12-13T09:24:36.102Z,21.85
2022-12-13T09:27:09.891Z,21.86
2022-12-13T09:29:37.983Z,21.89
2022-12-13T09:32:07.285Z,21.91
2022-12-13T09:34:35.287Z,21.92
2022-12-13T09:37:02.976Z,21.93
2022-12-13T09:39:31.158Z,21.93
2022-12-13T09:42:01.060Z,21.94
2022-12-13T09:44:30.442Z,21.95
2022-12-13T09:47:01.411Z,21.95
2022-12-13T09:49:35.164Z,21.97
2022-12-13T09:52:21.710Z,21.97
2022-12-13T09:54:50.015Z,21.98
2022-12-13T09:57:31.859Z,21.99
2022-12-13T10:00:02.628Z,22.01
2022-12-13T10:02:30.814Z,22.03
2022-12-13T10:05:01.507Z,22.04
2022-12-13T10:07:30.205Z,22.07
2022-12-13T10:10:00.413Z,22.11
2022-12-13T10:12:28.223Z,22.13
2022-12-13T10:14:57.124Z,22.15
2022-12-13T10:17:24.745Z,22.19
2022-12-13T10:19:53.478Z,22.20
2022-12-13T10:22:22.862Z,22.22
2022-12-13T10:24:51.616Z,22.25
2022-12-13T10:27:19.684Z,22.30
2022-12-13T10:30:00.924Z,22.35
2022-12-13T10:32:28.565Z,22.39
2022-12-13T10:34:56.513Z,22.45
2022-12-13T10:37:29.577Z,22.46
2022-12-13T10:39:57.328Z,22.45
2022-12-13T10:42:30.503Z,22.43
2022-12-13T10:45:23.612Z,22.45
2022-12-13T10:47:51.783Z,22.47
2022-12-13T10:50:24.394Z,22.46
2022-12-13T10:53:00.103Z,22.48
2022-12-13T10:55:29.347Z,22.48
2022-12-13T10:57:58.292Z,22.41
2022-12-13T11:00:33.827Z,22.41
2022-12-13T11:03:01.708Z,22.41
2022-12-13T11:05:30.541Z,22.41
2022-12-13T11:08:00.820Z,22.38
2022-12-13T11:10:30.111Z,22.38
2022-12-13T11:13:02.398Z,22.39
2022-12-13T11:15:31.499Z,22.41
2022-12-13T11:18:00.215Z,22.44
2022-12-13T11:20:28.685Z,22.45
2022-12-13T11:23:01.552Z,22.45
2022-12-13T11:25:31.165Z,22.49
2022-12-13T11:28:02.592Z,22.52
2022-12-13T11:30:32.419Z,22.55
2022-12-13T11:33:06.658Z,22.57
2022-12-13T11:35:37.616Z,22.60
2022-12-13T11:38:08.588Z,22.63
2022-12-13T11:40:39.134Z,22.64
2022-12-13T11:43:07.170Z,22.65
2022-12-13T11:45:36.758Z,22.67
2022-12-13T11:48:05.757Z,22.68
2022-12-13T11:50:35.843Z,22.69
2022-12-13T11:53:19.999Z,22.71
2022-12-13T11:55:48.818Z,22.70
2022-12-13T11:58:32.493Z,22.66
2022-12-13T12:01:08.089Z,22.66
2022-12-13T12:03:36.764Z,22.63
2022-12-13T12:06:05.942Z,22.65
2022-12-13T12:08:36.620Z,22.66
2022-12-13T12:11:08.669Z,22.67
2022-12-13T12:13:51.603Z,22.66
2022-12-13T12:16:24.226Z,22.65
2022-12-13T12:18:51.968Z,22.66
2022-12-13T12:21:32.789Z,22.65
2022-12-13T12:24:17.551Z,22.63
2022-12-13T12:26:48.112Z,22.60
2022-12-13T12:29:24.405Z,22.57
2022-12-13T12:31:53.905Z,22.55
2022-12-13T12:34:27.678Z,22.51
2022-12-13T12:36:58.305Z,22.50
2022-12-13T12:39:45.416Z,22.50
2022-12-13T12:42:18.488Z,22.47
2022-12-13T12:44:48.215Z,22.45
2022-12-13T12:50:18.810Z,22.42
2022-12-13T12:52:50.968Z,22.41
2022-12-13T12:55:21.785Z,22.39
2022-12-13T12:57:52.833Z,22.38
2022-12-13T13:00:22.508Z,22.36
2022-12-13T13:02:51.569Z,22.35
2022-12-13T13:05:22.599Z,22.34
2022-12-13T13:07:51.790Z,22.33
2022-12-13T13:10:26.281Z,22.32
2022-12-13T13:13:11.532Z,22.30
2022-12-13T13:15:57.648Z,22.29
2022-12-13T13:18:44.626Z,22.28
2022-12-13T13:21:30.954Z,22.26
2022-12-13T13:24:17.001Z,22.26
2022-12-13T13:26:49.822Z,22.25
2022-12-13T13:29:31.154Z,22.25
2022-12-13T13:32:02.124Z,22.23
2022-12-13T13:34:30.502Z,22.23
2022-12-13T13:37:00.607Z,22.22
2022-12-13T13:39:52.236Z,22.22
2022-12-13T13:42:22.078Z,22.21
2022-12-13T13:45:04.569Z,22.21
2022-12-13T13:47:40.647Z,22.19
2022-12-13T13:50:25.034Z,22.19
2022-12-13T13:52:57.672Z,22.19
2022-12-13T13:55:37.698Z,22.17
2022-12-13T13:58:27.312Z,22.17
2022-12-13T14:01:10.910Z,22.16
2022-12-13T14:03:57.388Z,22.14
2022-12-13T14:06:46.637Z,22.15
2022-12-13T14:09:23.057Z,22.13
2022-12-13T14:12:21.834Z,22.11
2022-12-13T14:15:23.347Z,22.11
2022-12-13T14:18:04.937Z,22.11
2022-12-13T14:20:42.114Z,22.09
2022-12-13T14:23:11.410Z,22.08
2022-12-13T14:25:52.478Z,22.09
2022-12-13T14:28:23.361Z,22.08
2022-12-13T14:30:57.386Z,22.06
2022-12-13T14:33:29.441Z,22.05
2022-12-13T14:36:00.768Z,22.04
2022-12-13T14:38:28.859Z,22.05
2022-12-13T14:40:59.832Z,22.03
2022-12-13T14:43:27.996Z,22.03
2022-12-13T14:45:58.285Z,22.02
2022-12-13T14:48:28.065Z,22.03
2022-12-13T14:50:57.667Z,22.02
2022-12-13T14:53:26.534Z,22.01
2022-12-13T14:56:05.108Z,22.01
2022-12-13T14:58:32.802Z,22.02
2022-12-13T15:01:01.405Z,22.00
2022-12-13T15:03:30.572Z,22.00
2022-12-13T15:06:00.811Z,21.99
2022-12-13T15:08:28.613Z,21.99
2022-12-13T15:10:56.874Z,22.00
2022-12-13T15:13:29.134Z,21.98
2022-12-13T15:16:00.094Z,21.99
2022-12-13T15:18:28.692Z,21.98
2022-12-13T15:20:58.018Z,21.97
2022-12-13T15:23:29.262Z,21.97
2022-12-13T15:25:59.160Z,21.96
2022-12-13T15:28:29.680Z,21.95
2022-12-13T15:30:57.690Z,21.95
2022-12-13T15:33:33.407Z,21.94
2022-12-13T15:36:05.513Z,21.94
2022-12-13T15:38:33.893Z,21.93
2022-12-13T15:41:02.781Z,21.93
2022-12-13T15:43:33.555Z,21.92
2022-12-13T15:46:01.531Z,21.91
2022-12-13T15:48:31.757Z,21.91
2022-12-13T15:51:07.537Z,21.92
2022-12-13T15:53:36.822Z,21.90
2022-12-13T15:56:09.613Z,21.90
2022-12-13T15:58:38.390Z,21.90
2022-12-13T16:01:06.387Z,21.90
2022-12-13T16:03:37.829Z,21.89
2022-12-13T16:06:07.635Z,21.88
2022-12-13T16:08:37.429Z,21.88
2022-12-13T16:11:05.132Z,21.87
2022-12-13T16:13:34.130Z,21.88
2022-12-13T16:16:08.776Z,21.87
2022-12-13T16:18:44.409Z,21.87
2022-12-13T16:21:14.361Z,21.86
2022-12-13T16:23:48.466Z,21.85
2022-12-13T16:26:16.876Z,21.85
2022-12-13T16:28:45.762Z,21.85
2022-12-13T16:31:15.095Z,21.85
2022-12-13T16:33:43.800Z,21.84
2022-12-13T16:36:11.457Z,21.83
2022-12-13T16:38:41.263Z,21.83
2022-12-13T16:41:09.725Z,21.83
2022-12-13T16:43:40.257Z,21.82
2022-12-13T16:47:17.926Z,21.82
2022-12-13T16:48:56.770Z,21.81
2022-12-13T16:51:24.426Z,21.82
2022-12-13T16:53:54.174Z,21.82
2022-12-13T16:56:22.567Z,21.81
2022-12-13T16:58:51.886Z,21.80
2022-12-13T17:01:20.788Z,21.79
2022-12-13T17:03:49.275Z,21.79
2022-12-13T17:06:17.831Z,21.80
2022-12-13T17:08:46.363Z,21.79
2022-12-13T17:11:18.234Z,21.79
2022-12-13T17:13:48.909Z,21.80
2022-12-13T17:16:16.902Z,21.80
2022-12-13T17:18:45.438Z,21.80
2022-12-13T17:21:13.215Z,21.79
2022-12-13T17:23:41.921Z,21.79
2022-12-13T17:26:10.453Z,21.79
2022-12-13T17:28:40.203Z,21.79
2022-12-13T17:31:08.089Z,21.79
2022-12-13T17:33:37.164Z,21.78
2022-12-13T17:36:05.003Z,21.77
2022-12-13T17:38:36.983Z,21.76
2022-12-13T17:41:04.829Z,21.77
2022-12-13T17:43:35.079Z,21.74
2022-12-13T17:46:04.762Z,21.74
2022-12-13T17:48:40.316Z,21.73
2022-12-13T17:51:09.169Z,21.76
2022-12-13T17:53:37.754Z,21.73
2022-12-13T17:56:07.679Z,21.73
2022-12-13T17:58:36.301Z,21.73
2022-12-13T18:01:12.112Z,21.72
2022-12-13T18:03:40.665Z,21.71
2022-12-13T18:06:08.444Z,21.70
2022-12-13T18:08:37.563Z,21.69
2022-12-13T18:13:55.380Z,21.69
2022-12-13T18:16:32.017Z,21.68
2022-12-13T18:19:04.832Z,21.68
2022-12-13T18:21:32.477Z,21.68
2022-12-13T18:24:01.209Z,21.69
2022-12-13T18:26:28.834Z,21.69
2022-12-13T18:28:57.211Z,21.69
2022-12-13T18:31:26.350Z,21.69
2022-12-13T18:33:54.946Z,21.70
2022-12-13T18:36:22.907Z,21.68
2022-12-13T18:41:46.216Z,21.68
2022-12-13T18:44:16.041Z,21.68
2022-12-13T18:46:46.891Z,21.68
2022-12-13T18:49:15.495Z,21.68
2022-12-13T18:51:43.161Z,21.68
2022-12-13T18:54:19.062Z,21.67
2022-12-13T18:56:46.760Z,21.66
2022-12-13T18:59:16.035Z,21.66
2022-12-13T19:01:45.110Z,21.66
2022-12-13T19:04:13.608Z,21.66
2022-12-13T19:06:41.252Z,21.66
2022-12-13T19:09:10.282Z,21.67
2022-12-13T19:11:37.984Z,21.67
2022-12-13T19:14:07.314Z,21.67
2022-12-13T19:16:35.998Z,21.68
2022-12-13T19:19:07.809Z,21.67
2022-12-13T19:21:35.431Z,21.67
2022-12-13T19:24:03.877Z,21.68
2022-12-13T19:26:31.672Z,21.68
2022-12-13T19:29:01.051Z,21.68
2022-12-13T19:31:32.367Z,21.69
2022-12-13T19:34:01.313Z,21.69
2022-12-13T19:36:30.474Z,21.70
2022-12-13T19:38:59.449Z,21.69
2022-12-13T19:41:27.163Z,21.69
2022-12-13T19:43:55.724Z,21.69
2022-12-13T19:46:23.390Z,21.70
2022-12-13T19:48:52.065Z,21.70
2022-12-13T19:51:19.850Z,21.71
2022-12-13T19:53:51.178Z,21.70
2022-12-13T19:56:19.144Z,21.71
2022-12-13T19:58:48.123Z,21.71
2022-12-13T20:01:15.844Z,21.70
2022-12-13T20:03:43.757Z,21.70
2022-12-13T20:06:12.784Z,21.70
2022-12-13T20:08:40.438Z,21.70
2022-12-13T20:11:12.054Z,21.70
2022-12-13T20:13:41.407Z,21.70
2022-12-13T20:16:10.233Z,21.70
2022-12-13T20:18:37.987Z,21.71
2022-12-13T20:21:12.164Z,21.70
2022-12-13T20:23:40.798Z,21.70
2022-12-13T20:26:12.446Z,21.71
2022-12-13T20:28:40.122Z,21.70
2022-12-13T20:31:09.115Z,21.71
2022-12-13T20:33:37.019Z,21.70
2022-12-13T20:36:24.576Z,21.70
2022-12-13T20:38:53.248Z,21.70
2022-12-13T20:41:24.216Z,21.70
2022-12-13T20:43:52.316Z,21.71
2022-12-13T20:46:21.115Z,21.70
2022-12-13T20:48:49.041Z,21.70
2022-12-13T20:51:17.884Z,21.71
2022-12-13T20:53:45.827Z,21.71
2022-12-13T20:56:16.194Z,21.71
2022-12-13T20:58:45.404Z,21.72
2022-12-13T21:01:16.061Z,21.71
2022-12-13T21:03:43.817Z,21.71
2022-12-13T21:06:13.239Z,21.71
2022-12-13T21:08:53.052Z,21.71
2022-12-13T21:11:27.234Z,21.71
2022-12-13T21:14:08.188Z,21.71
2022-12-13T21:16:40.377Z,21.71
2022-12-13T21:19:08.527Z,21.71
2022-12-13T21:21:37.038Z,21.71
2022-12-13T21:24:04.904Z,21.70
2022-12-13T21:27:10.141Z,21.71
2022-12-13T21:29:39.202Z,21.70
2022-12-13T21:32:08.205Z,21.69
2022-12-13T21:34:35.960Z,21.70
2022-12-13T21:37:05.068Z,21.70
2022-12-13T21:39:32.748Z,21.69
2022-12-13T21:42:01.264Z,21.69
2022-12-13T21:44:29.089Z,21.70
2022-12-13T21:47:15.094Z,21.70
2022-12-13T21:49:48.546Z,21.69
2022-12-13T21:52:19.204Z,21.69
2022-12-13T21:54:46.805Z,21.70
2022-12-13T21:57:33.202Z,21.70
2022-12-13T22:00:00.875Z,21.70
2022-12-13T22:02:31.178Z,21.70
2022-12-13T22:04:58.960Z,21.70
2022-12-13T22:07:28.139Z,21.69
2022-12-13T22:09:57.395Z,21.68
2022-12-13T22:12:26.385Z,21.66
2022-12-13T22:14:55.465Z,21.66
2022-12-13T22:17:31.056Z,21.66
2022-12-13T22:20:02.176Z,21.65
2022-12-13T22:22:32.214Z,21.64
2022-12-13T22:25:02.655Z,21.64
2022-12-13T22:27:31.159Z,21.64
2022-12-13T22:29:58.852Z,21.63
2022-12-13T22:32:27.693Z,21.61
2022-12-13T22:34:55.328Z,21.61
2022-12-13T22:37:27.099Z,21.60
2022-12-13T22:40:02.494Z,21.60
2022-12-13T22:42:31.178Z,21.60
2022-12-13T22:44:58.911Z,21.59
2022-12-13T22:47:27.368Z,21.57
2022-12-13T22:49:54.973Z,21.57
2022-12-13T22:52:27.730Z,21.57
2022-12-13T22:55:32.008Z,21.57
2022-12-13T22:58:00.317Z,21.57
2022-12-13T23:00:28.002Z,21.57
2022-12-13T23:02:56.497Z,21.57
2022-12-13T23:05:24.162Z,21.57
2022-12-13T23:07:53.809Z,21.59
2022-12-13T23:10:39.160Z,21.58
2022-12-13T23:13:07.534Z,21.59
2022-12-13T23:15:37.413Z,21.57
2022-12-13T23:18:05.781Z,21.57
2022-12-13T23:20:34.478Z,21.56
2022-12-13T23:23:04.208Z,21.56
2022-12-13T23:32:56.895Z,21.54
2022-12-13T23:35:24.596Z,21.52
2022-12-13T23:37:52.322Z,21.51
2022-12-13T23:40:41.567Z,21.51
2022-12-13T23:43:10.563Z,21.50
2022-12-13T23:45:38.172Z,21.51
2022-12-13T23:48:06.100Z,21.50
2022-12-13T23:50:33.741Z,21.49
2022-12-13T23:53:01.476Z,21.49
2022-12-13T23:55:29.098Z,21.49
2022-12-13T23:57:56.840Z,21.48
